Time;durP1;ratioP1;P1;durP2;ratioP2;P2;SDS_P1;SDS_P2;PMS_P1;PMS_P2;Temp;Humidity;BMP_temperature;BMP_pressure;BME280_temperature;BME280_humidity;BME280_pressure;Samples;Min_cycle;Max_cycle;Signal;HPM_P1;HPM_P2
2022/05/05 00:00:14;;;;;;;9.45;5.97;;;;;;;14.45;52.95;100936.63;4974276;28;20031;-78
2022/05/05 00:02:39;;;;;;;15.68;5.82;;;;;;;14.42;53.03;100931.50;4972789;28;20443;-80
2022/05/05 00:05:05;;;;;;;14.73;7.13;;;;;;;14.34;52.97;100947.59;4973857;28;20105;-78
2022/05/05 00:07:31;;;;;;;11.93;6.20;;;;;;;14.38;53.04;100938.19;4973665;28;20457;-80
2022/05/05 00:09:57;;;;;;;13.00;6.47;;;;;;;14.37;52.97;100944.63;4972821;28;20115;-79
2022/05/05 00:15:07;;;;;;;16.48;7.85;;;;;;;14.42;52.93;100961.28;4973769;28;20034;-78
2022/05/05 00:17:34;;;;;;;29.45;8.77;;;;;;;14.34;53.12;100961.13;4974370;28;20026;-78
2022/05/05 00:20:00;;;;;;;15.65;10.05;;;;;;;14.28;53.26;100961.66;4973820;28;20019;-79
2022/05/05 00:22:26;;;;;;;20.52;7.78;;;;;;;14.33;53.38;100959.41;4974385;28;20138;-78
2022/05/05 00:24:51;;;;;;;16.75;8.18;;;;;;;14.28;53.35;100958.94;4973838;28;20055;-78
2022/05/05 00:27:17;;;;;;;19.73;8.95;;;;;;;14.22;53.52;100954.09;4973550;28;20037;-78
2022/05/05 00:29:42;;;;;;;18.65;9.30;;;;;;;14.21;53.65;100949.69;4973234;28;20025;-78
2022/05/05 00:32:08;;;;;;;21.02;9.18;;;;;;;14.18;53.77;100965.22;4973347;28;20524;-78
2022/05/05 00:34:34;;;;;;;13.70;9.23;;;;;;;14.06;54.21;100952.81;4973556;28;20027;-78
2022/05/05 00:36:59;;;;;;;19.98;9.20;;;;;;;13.99;54.47;100962.44;4973278;28;20027;-78
2022/05/05 00:39:25;;;;;;;16.50;8.43;;;;;;;13.92;54.70;100957.72;4973709;28;20040;-78
2022/05/05 00:41:51;;;;;;;20.23;8.40;;;;;;;13.98;54.87;100960.72;4973095;28;20501;-78
2022/05/05 00:44:16;;;;;;;23.27;8.23;;;;;;;13.93;55.02;100952.19;4972579;28;20027;-80
2022/05/05 00:46:51;;;;;;;14.75;8.07;;;;;;;13.96;55.31;100951.06;4973975;28;20033;-79
2022/05/05 00:49:18;;;;;;;13.45;7.65;;;;;;;14.06;54.93;100962.75;4973696;28;20061;-79
2022/05/05 00:51:44;;;;;;;11.43;6.50;;;;;;;14.02;55.08;100959.47;4973589;28;20034;-77
2022/05/05 00:54:10;;;;;;;15.52;7.32;;;;;;;14.05;55.00;100961.91;4973236;28;20073;-81
2022/05/05 00:56:36;;;;;;;15.85;7.30;;;;;;;14.14;54.75;100971.88;4973227;28;20025;-78
2022/05/05 00:59:02;;;;;;;8.38;6.28;;;;;;;14.13;54.64;100980.13;4973540;28;20014;-79
2022/05/05 01:01:28;;;;;;;14.77;6.05;;;;;;;14.10;54.86;100969.56;4973547;28;20027;-78
2022/05/05 01:03:53;;;;;;;12.27;6.70;;;;;;;14.09;54.87;100973.28;4973311;28;20097;-79
2022/05/05 01:06:19;;;;;;;21.67;6.75;;;;;;;14.15;54.87;100970.03;4973344;28;20436;-80
2022/05/05 01:08:46;;;;;;;11.68;6.35;;;;;;;14.18;54.74;100970.63;4973111;28;20082;-80
2022/05/05 01:11:12;;;;;;;15.88;6.93;;;;;;;14.19;54.63;100969.59;4973593;28;20165;-77
2022/05/05 01:13:42;;;;;;;15.68;5.82;;;;;;;14.17;54.75;100971.59;4973488;28;20030;-77
2022/05/05 01:16:10;;;;;;;19.17;6.57;;;;;;;14.11;54.81;100972.16;4979032;28;20030;-81
2022/05/05 01:18:35;;;;;;;10.63;5.95;;;;;;;14.15;54.57;100976.31;4985683;28;20026;-78
2022/05/05 01:21:01;;;;;;;9.95;5.85;;;;;;;14.19;54.57;100974.16;4975965;28;20424;-78
2022/05/05 01:23:26;;;;;;;5.65;4.82;;;;;;;14.16;54.78;100969.03;4976952;28;20493;-79
2022/05/05 01:28:45;;;;;;;8.23;5.80;;;;;;;14.08;55.09;100967.03;4976869;28;20123;-78
2022/05/05 01:31:11;;;;;;;10.65;5.82;;;;;;;14.11;55.03;100977.56;4976704;28;20034;-78
2022/05/05 01:33:38;;;;;;;8.20;5.57;;;;;;;14.16;54.83;100964.47;4975638;28;20121;-80
2022/05/05 01:36:04;;;;;;;8.10;5.45;;;;;;;14.27;54.60;100970.75;4977424;28;20476;-79
2022/05/05 01:38:37;;;;;;;11.05;6.53;;;;;;;14.30;54.28;100976.75;4976978;28;20019;-78
2022/05/05 01:41:11;;;;;;;12.95;6.00;;;;;;;14.26;54.33;100971.75;4976918;28;20038;-78
2022/05/05 01:43:37;;;;;;;8.88;5.65;;;;;;;14.17;54.52;100985.13;4977081;28;20456;-78
2022/05/05 01:46:04;;;;;;;15.82;6.80;;;;;;;14.18;54.19;100984.16;4976583;28;20018;-80
2022/05/05 01:48:30;;;;;;;12.60;6.57;;;;;;;14.19;54.50;100980.41;4977675;28;20081;-79
2022/05/05 01:50:55;;;;;;;11.18;5.97;;;;;;;14.19;54.32;100983.13;4976652;28;20448;-78
2022/05/05 01:53:21;;;;;;;12.43;5.53;;;;;;;14.17;54.48;100987.84;4976525;28;20035;-78
2022/05/05 01:55:46;;;;;;;14.02;6.07;;;;;;;14.13;54.79;100975.56;4976905;28;20035;-78
2022/05/05 01:58:12;;;;;;;11.73;6.00;;;;;;;14.20;54.75;100981.28;4976816;28;20019;-78
2022/05/05 02:00:38;;;;;;;17.65;6.28;;;;;;;14.26;54.93;100979.88;4978060;28;20057;-79
2022/05/05 02:03:12;;;;;;;12.02;6.22;;;;;;;14.29;54.69;100982.28;4976402;28;20078;-79
2022/05/05 02:05:44;;;;;;;17.27;6.00;;;;;;;14.33;54.72;100990.03;4976665;28;20041;-79
2022/05/05 02:08:11;;;;;;;14.57;6.22;;;;;;;14.28;54.63;100994.13;4976603;28;20051;-78
2022/05/05 02:10:36;;;;;;;15.77;6.47;;;;;;;14.15;55.14;100989.84;4976219;28;20035;-79
2022/05/05 02:13:03;;;;;;;11.60;5.68;;;;;;;14.27;54.99;100997.81;4976106;28;20026;-77
2022/05/05 02:15:28;;;;;;;11.25;6.03;;;;;;;14.27;55.00;100995.97;4975843;28;20027;-79
2022/05/05 02:17:54;;;;;;;30.25;8.18;;;;;;;14.30;55.07;100989.41;4976816;28;20027;-78
2022/05/05 02:20:19;;;;;;;17.23;8.48;;;;;;;14.34;54.97;100989.00;4976603;28;20015;-78
2022/05/05 02:22:45;;;;;;;17.15;9.48;;;;;;;14.30;54.76;100994.84;4976240;28;20027;-78
2022/05/05 02:25:10;;;;;;;19.65;9.32;;;;;;;14.28;54.84;100994.97;4974802;28;20038;-78
2022/05/05 02:27:49;;;;;;;17.67;10.38;;;;;;;14.30;54.91;100997.53;4975875;28;20042;-79
2022/05/05 02:30:18;;;;;;;23.05;11.32;;;;;;;14.25;55.19;101000.66;4976467;28;20085;-79
2022/05/05 02:32:43;;;;;;;23.77;11.65;;;;;;;14.22;55.26;100989.28;4974919;28;20096;-78
2022/05/05 02:35:09;;;;;;;17.83;11.60;;;;;;;14.14;55.71;101012.47;4975901;28;20030;-78
2022/05/05 02:40:19;;;;;;;17.15;10.45;;;;;;;14.12;55.62;101005.47;4975789;28;20193;-78
2022/05/05 02:42:45;;;;;;;23.65;11.02;;;;;;;14.11;55.93;101014.56;4975840;28;20031;-77
2022/05/05 02:45:10;;;;;;;19.98;11.77;;;;;;;14.03;56.17;101011.72;4975297;28;20138;-78
2022/05/05 02:47:36;;;;;;;26.95;12.95;;;;;;;13.93;56.46;101019.78;4975742;28;20035;-77
2022/05/05 02:50:01;;;;;;;22.88;11.77;;;;;;;13.75;56.84;101021.44;4975639;28;20033;-80
2022/05/05 02:52:28;;;;;;;22.90;13.00;;;;;;;13.77;57.30;101022.13;4984345;28;20027;-78
2022/05/05 02:54:55;;;;;;;22.33;13.50;;;;;;;13.89;56.97;101031.88;5003028;28;20078;-79
2022/05/05 02:57:23;;;;;;;31.13;14.55;;;;;;;13.69;57.36;101030.06;4990338;28;20041;-79
2022/05/05 02:59:53;;;;;;;23.15;14.27;;;;;;;13.82;57.13;101036.09;4975753;28;20338;-78
2022/05/05 03:02:19;;;;;;;33.95;15.10;;;;;;;13.68;57.95;101033.75;4975572;28;20170;-79
2022/05/05 03:04:44;;;;;;;40.47;16.00;;;;;;;13.63;58.39;101031.47;4975356;28;20054;-79
2022/05/05 03:07:09;;;;;;;29.73;15.77;;;;;;;13.73;57.83;101036.91;4975353;28;20030;-79
2022/05/05 03:09:35;;;;;;;40.28;17.38;;;;;;;13.68;58.21;101033.75;4975261;28;20031;-80
2022/05/05 03:12:00;;;;;;;45.90;15.50;;;;;;;13.65;58.60;101034.03;4973702;28;20037;-79
2022/05/05 03:14:26;;;;;;;38.38;16.40;;;;;;;13.70;58.38;101045.28;4974594;28;20019;-78
2022/05/05 03:16:51;;;;;;;28.50;16.10;;;;;;;13.70;58.78;101042.59;4974968;28;20477;-79
2022/05/05 03:19:17;;;;;;;30.55;17.23;;;;;;;13.63;58.74;101046.84;4974879;28;20073;-79
2022/05/05 03:21:42;;;;;;;32.40;16.40;;;;;;;13.47;59.39;101044.59;4975242;28;20042;-79
2022/05/05 03:24:08;;;;;;;30.42;16.45;;;;;;;13.60;59.18;101052.50;4973614;28;20031;-79
2022/05/05 03:26:33;;;;;;;24.20;15.70;;;;;;;13.60;59.53;101052.50;4975515;28;20098;-80
2022/05/05 03:28:59;;;;;;;29.80;15.18;;;;;;;13.61;59.52;101054.19;4974919;28;20473;-78
2022/05/05 03:31:25;;;;;;;23.30;15.30;;;;;;;13.70;59.21;101064.22;4974862;28;20114;-78
2022/05/05 03:33:50;;;;;;;33.00;15.60;;;;;;;13.70;59.54;101068.78;4974918;28;20033;-78
2022/05/05 03:36:16;;;;;;;35.72;14.90;;;;;;;13.70;59.42;101064.22;4974477;28;20109;-78
2022/05/05 03:38:42;;;;;;;34.15;14.35;;;;;;;13.67;59.72;101075.28;4974917;28;20504;-78
2022/05/05 03:41:07;;;;;;;28.85;14.80;;;;;;;13.71;60.07;101071.34;4974638;28;20049;-78
2022/05/05 03:43:33;;;;;;;30.25;14.40;;;;;;;13.77;59.87;101075.34;4974809;28;20465;-78
2022/05/05 03:45:59;;;;;;;30.92;14.32;;;;;;;13.84;59.70;101077.38;4974366;28;20027;-78
2022/05/05 03:48:24;;;;;;;26.75;13.02;;;;;;;13.92;59.66;101080.25;4972950;28;20497;-78
2022/05/05 03:50:50;;;;;;;29.58;12.48;;;;;;;13.92;59.76;101074.00;4974477;28;20022;-78
2022/05/05 03:53:16;;;;;;;26.27;13.52;;;;;;;14.06;59.42;101081.75;4974242;28;20037;-78
2022/05/05 03:55:41;;;;;;;31.02;15.15;;;;;;;14.00;59.29;101069.66;4974649;28;20135;-78
2022/05/05 03:58:07;;;;;;;29.70;13.88;;;;;;;14.10;59.25;101081.34;4978763;28;20074;-77
2022/05/05 04:00:32;;;;;;;38.63;14.77;;;;;;;14.06;59.50;101087.19;4987525;28;20055;-77
2022/05/05 04:05:41;;;;;;;35.35;15.48;;;;;;;14.18;59.41;101092.34;4977365;28;20041;-80
2022/05/05 04:08:07;;;;;;;36.22;15.27;;;;;;;14.20;59.63;101097.63;4988764;28;20026;-77
2022/05/05 04:10:32;;;;;;;24.85;15.48;;;;;;;14.21;59.78;101095.78;4974454;28;20037;-77
2022/05/05 04:12:58;;;;;;;36.00;13.25;;;;;;;14.27;59.93;101100.63;4974051;28;20022;-77
2022/05/05 04:15:24;;;;;;;40.25;14.13;;;;;;;14.35;59.90;101108.94;4976198;28;20405;-77
2022/05/05 04:17:50;;;;;;;20.17;13.88;;;;;;;14.38;60.43;101106.81;4973793;28;20056;-77
2022/05/05 04:20:16;;;;;;;28.27;15.30;;;;;;;14.47;60.48;101107.84;4973293;28;20034;-77
2022/05/05 04:22:41;;;;;;;34.65;14.18;;;;;;;14.45;60.71;101090.91;4973569;28;20023;-79
2022/05/05 04:25:08;;;;;;;36.50;14.32;;;;;;;14.38;61.17;101096.00;4973709;28;20035;-77
2022/05/05 04:27:34;;;;;;;40.78;13.40;;;;;;;14.36;61.51;101089.88;4974716;28;20034;-79
2022/05/05 04:30:01;;;;;;;32.50;14.57;;;;;;;14.30;61.80;101101.22;4984512;28;20054;-77
2022/05/05 04:32:27;;;;;;;35.40;14.18;;;;;;;14.28;61.90;101107.75;4973711;28;20034;-77
2022/05/05 04:34:54;;;;;;;23.90;13.10;;;;;;;14.26;61.75;101109.72;4988352;28;20035;-77
2022/05/05 04:37:20;;;;;;;28.98;13.85;;;;;;;14.29;61.68;101115.72;4973464;28;20480;-76
2022/05/05 04:39:46;;;;;;;49.03;14.30;;;;;;;14.33;61.68;101119.06;4976855;28;20034;-77
2022/05/05 04:42:11;;;;;;;30.15;13.25;;;;;;;14.29;61.93;101121.16;4973766;28;20027;-79
2022/05/05 04:44:44;;;;;;;30.52;13.73;;;;;;;14.37;61.72;101128.63;4983523;28;20030;-78
2022/05/05 04:47:10;;;;;;;33.03;12.77;;;;;;;14.40;61.77;101118.34;4985814;28;20030;-78
2022/05/05 04:49:41;;;;;;;38.08;12.68;;;;;;;14.56;61.40;101112.41;4985567;28;20033;-78
2022/05/05 04:52:07;;;;;;;24.90;13.07;;;;;;;14.63;61.08;101110.88;4985516;28;20050;-77
2022/05/05 04:54:33;;;;;;;30.08;14.20;;;;;;;14.74;60.70;101126.16;4987469;28;20513;-78
2022/05/05 04:57:00;;;;;;;32.10;12.65;;;;;;;14.83;60.41;101131.56;4991688;28;20389;-76
2022/05/05 04:59:26;;;;;;;31.95;13.18;;;;;;;14.98;59.89;101127.47;4988126;28;20035;-79
2022/05/05 05:01:52;;;;;;;25.80;11.10;;;;;;;15.04;59.73;101123.38;4994105;28;20494;-80
2022/05/05 05:04:17;;;;;;;19.83;10.73;;;;;;;15.21;59.23;101136.19;4993113;28;20035;-79
2022/05/05 05:06:47;;;;;;;26.67;13.25;;;;;;;15.27;59.37;101130.22;4990551;28;20030;-78
2022/05/05 05:09:13;;;;;;;39.20;11.95;;;;;;;15.38;58.93;101131.94;4989553;28;20406;-78
2022/05/05 05:11:38;;;;;;;36.33;11.88;;;;;;;15.41;58.92;101139.78;4979838;28;20054;-79
2022/05/05 05:14:04;;;;;;;31.40;11.65;;;;;;;15.51;58.41;101132.50;4979621;28;20442;-78
2022/05/05 05:16:29;;;;;;;55.95;14.75;;;;;;;15.66;58.72;101147.31;4991402;28;20103;-79
2022/05/05 05:18:55;;;;;;;33.17;11.95;;;;;;;15.79;58.55;101142.47;5001093;28;20085;-79
2022/05/05 05:21:23;;;;;;;35.13;13.13;;;;;;;15.93;58.05;101143.88;4989793;28;20031;-80
2022/05/05 05:23:49;;;;;;;42.72;10.95;;;;;;;15.97;57.27;101140.69;4980936;28;20410;-79
2022/05/05 05:26:15;;;;;;;33.42;13.50;;;;;;;15.95;57.36;101148.13;4979231;28;20026;-79
2022/05/05 05:28:41;;;;;;;34.80;12.27;;;;;;;16.04;57.18;101141.84;4979742;28;20055;-79
2022/05/05 05:31:07;;;;;;;47.83;12.60;;;;;;;16.09;57.49;101144.94;4979809;28;20526;-78
2022/05/05 05:33:32;;;;;;;22.92;9.90;;;;;;;16.25;56.85;101150.63;4979064;28;20030;-76
2022/05/05 05:35:58;;;;;;;17.95;9.57;;;;;;;16.33;56.29;101158.84;4979075;28;20085;-77
2022/05/05 05:38:24;;;;;;;29.40;10.32;;;;;;;16.43;55.83;101160.69;4979084;28;20022;-78
2022/05/05 05:40:49;;;;;;;36.53;10.32;;;;;;;16.54;55.80;101155.06;4980079;28;20110;-79
2022/05/05 05:43:15;;;;;;;30.73;10.95;;;;;;;16.60;55.52;101163.50;4979459;28;20034;-78
2022/05/05 05:45:41;;;;;;;27.50;9.98;;;;;;;16.64;55.59;101158.59;4979405;28;20030;-77
2022/05/05 05:48:07;;;;;;;70.63;15.00;;;;;;;16.71;55.23;101157.88;4979379;28;20031;-78
2022/05/05 05:50:32;;;;;;;32.47;11.10;;;;;;;16.77;55.11;101159.13;4979467;28;20034;-78
2022/05/05 05:52:59;;;;;;;37.00;11.23;;;;;;;16.85;55.05;101159.19;4979316;28;20030;-78
2022/05/05 05:55:24;;;;;;;41.13;13.00;;;;;;;16.84;55.04;101161.09;4978893;28;20054;-78
2022/05/05 05:57:50;;;;;;;23.02;10.75;;;;;;;16.86;55.05;101171.78;4979063;28;20108;-78
2022/05/05 06:00:16;;;;;;;27.95;9.07;;;;;;;16.97;54.74;101174.28;4979126;28;20030;-79
2022/05/05 06:05:26;;;;;;;10.45;5.72;;;;;;;17.17;53.02;101175.88;4982573;28;20611;-80
2022/05/05 06:07:57;;;;;;;19.75;7.47;;;;;;;17.25;52.15;101178.69;4994578;28;20018;-78
2022/05/05 06:10:23;;;;;;;46.70;12.13;;;;;;;17.34;52.42;101175.03;4976059;28;20090;-79
2022/05/05 06:12:48;;;;;;;14.57;5.82;;;;;;;17.42;52.63;101180.56;4975624;28;20030;-79
2022/05/05 06:15:15;;;;;;;16.58;6.05;;;;;;;17.56;51.78;101179.19;4982652;28;20045;-80
2022/05/05 06:17:40;;;;;;;21.25;7.93;;;;;;;17.66;51.78;101188.13;4976016;28;20027;-78
2022/05/05 06:20:06;;;;;;;17.88;7.07;;;;;;;17.73;51.40;101188.34;4976247;28;20452;-78
2022/05/05 06:22:34;;;;;;;21.30;6.13;;;;;;;17.77;51.73;101185.13;4976371;28;20150;-78
2022/05/05 06:24:59;;;;;;;24.73;8.45;;;;;;;17.78;51.43;101196.88;4975795;28;20499;-78
2022/05/05 06:27:25;;;;;;;32.50;10.25;;;;;;;17.80;51.93;101189.41;4975538;28;20050;-78
2022/05/05 06:29:50;;;;;;;21.58;8.32;;;;;;;17.98;51.43;101194.84;4975831;28;20054;-80
2022/05/05 06:32:17;;;;;;;46.08;12.80;;;;;;;18.03;51.29;101200.66;4975770;28;20034;-79
2022/05/05 06:34:43;;;;;;;34.40;14.05;;;;;;;18.13;51.29;101201.41;4974446;28;20026;-81
2022/05/05 06:37:08;;;;;;;65.68;16.98;;;;;;;18.15;51.42;101202.97;4975881;28;20050;-80
2022/05/05 06:39:34;;;;;;;63.35;16.90;;;;;;;18.14;51.53;101203.97;4974284;28;20402;-80
2022/05/05 06:42:01;;;;;;;47.80;17.20;;;;;;;18.22;51.52;101200.47;4975341;28;20038;-80
2022/05/05 06:44:27;;;;;;;34.45;13.82;;;;;;;18.27;51.31;101198.97;4975235;28;20037;-80
2022/05/05 06:46:52;;;;;;;34.70;12.13;;;;;;;18.34;51.14;101205.47;4975322;28;20027;-78
2022/05/05 06:49:18;;;;;;;35.72;12.48;;;;;;;18.42;51.11;101207.38;4975239;28;20097;-79
2022/05/05 06:51:44;;;;;;;34.97;14.10;;;;;;;18.08;52.48;101204.59;4975117;28;20088;-78
2022/05/05 06:54:09;;;;;;;42.40;14.10;;;;;;;18.29;52.25;101213.25;4974819;28;20101;-80
2022/05/05 06:56:35;;;;;;;61.50;25.85;;;;;;;18.38;52.03;101222.31;4974887;28;20449;-78
2022/05/05 06:59:00;;;;;;;59.05;19.30;;;;;;;18.44;52.06;101217.09;4975242;28;20420;-78
2022/05/05 07:06:54;;;;;;;47.40;19.13;;;;;;;18.38;50.07;101223.19;4974642;28;20038;-78
2022/05/05 07:12:03;;;;;;;19.90;5.55;;;;;;;18.57;42.34;101218.56;4974613;28;20038;-79
2022/05/05 07:14:29;;;;;;;24.20;12.43;;;;;;;18.58;45.69;101217.56;4974578;28;20019;-80
2022/05/05 07:16:54;;;;;;;16.63;5.53;;;;;;;18.74;41.79;101223.09;4974191;28;20029;-79
2022/05/05 07:19:20;;;;;;;15.57;4.88;;;;;;;18.81;41.46;101219.53;4974054;28;20026;-80
2022/05/05 07:21:45;;;;;;;30.88;5.70;;;;;;;18.71;40.33;101218.84;4974557;28;20031;-79
2022/05/05 07:24:11;;;;;;;21.90;8.95;;;;;;;18.86;39.59;101219.06;4974438;28;20041;-77
2022/05/05 07:26:36;;;;;;;12.35;5.32;;;;;;;18.93;38.14;101222.81;4972966;28;20031;-77
2022/05/05 07:29:01;;;;;;;9.18;4.35;;;;;;;19.01;37.61;101220.13;4974105;28;20432;-79
2022/05/05 07:31:27;;;;;;;14.05;3.92;;;;;;;19.15;38.00;101224.94;4974427;28;20082;-76
2022/05/05 07:33:52;;;;;;;15.00;5.05;;;;;;;19.27;37.45;101223.63;4974412;28;20029;-78
2022/05/05 07:36:18;;;;;;;12.27;3.35;;;;;;;19.47;37.49;101219.63;4974212;28;20020;-78
2022/05/05 07:38:43;;;;;;;4.63;2.65;;;;;;;19.67;36.03;101211.97;4974415;28;20154;-77
2022/05/05 07:41:08;;;;;;;16.50;3.60;;;;;;;19.99;36.00;101224.78;4974721;28;20027;-77
2022/05/05 07:43:34;;;;;;;28.40;3.95;;;;;;;20.17;35.13;101214.53;4985482;28;20030;-78
2022/05/05 07:45:59;;;;;;;5.80;2.72;;;;;;;20.41;35.14;101219.97;4975152;28;20084;-78
2022/05/05 07:48:25;;;;;;;12.93;4.20;;;;;;;20.58;33.62;101207.97;4973708;28;20029;-77
2022/05/05 07:50:50;;;;;;;12.25;2.90;;;;;;;20.62;33.17;101209.31;4972514;28;20034;-77
2022/05/05 07:53:16;;;;;;;13.55;2.90;;;;;;;20.65;33.23;101202.66;4973512;28;20034;-77
2022/05/05 07:55:42;;;;;;;6.45;3.15;;;;;;;20.85;34.12;101214.03;4973386;28;20053;-79
2022/05/05 07:58:07;;;;;;;10.40;3.60;;;;;;;20.92;32.82;101209.53;4973737;28;20119;-77
2022/05/05 08:00:33;;;;;;;19.58;3.35;;;;;;;20.94;32.43;101212.97;4973992;28;20485;-77
2022/05/05 08:02:58;;;;;;;15.27;3.25;;;;;;;20.85;32.18;101206.69;4973746;28;20019;-77
2022/05/05 08:05:24;;;;;;;5.70;2.75;;;;;;;20.80;32.51;101225.50;4973472;28;20408;-77
2022/05/05 08:07:51;;;;;;;13.38;3.78;;;;;;;20.81;32.97;101218.16;4973174;28;20135;-77
2022/05/05 08:10:17;;;;;;;16.35;3.70;;;;;;;20.63;33.01;101221.97;4973492;28;20522;-77
2022/05/05 08:12:45;;;;;;;14.50;3.30;;;;;;;20.45;33.30;101217.75;4973451;28;20019;-76
2022/05/05 08:15:10;;;;;;;27.70;3.63;;;;;;;20.18;34.08;101216.22;4973732;28;20030;-77
2022/05/05 08:17:36;;;;;;;10.55;3.95;;;;;;;20.05;34.95;101213.16;4973290;28;20374;-77
2022/05/05 08:20:04;;;;;;;14.45;3.88;;;;;;;20.07;35.22;101217.44;4973562;28;20019;-77
2022/05/05 08:22:29;;;;;;;30.08;4.53;;;;;;;20.09;35.38;101209.91;4973482;28;20026;-78
2022/05/05 08:30:23;;;;;;;14.25;4.05;;;;;;;20.00;36.79;101212.81;4972617;28;20469;-77
2022/05/05 08:32:49;;;;;;;16.95;5.45;;;;;;;19.90;36.23;101213.00;4973407;28;20046;-78
2022/05/05 08:35:14;;;;;;;33.47;9.82;;;;;;;19.84;36.10;101207.38;4973363;28;20034;-77
2022/05/05 08:37:39;;;;;;;14.77;6.03;;;;;;;19.98;36.31;101220.31;4973933;28;20046;-77
2022/05/05 08:40:06;;;;;;;13.20;3.53;;;;;;;20.13;36.18;101213.16;4973793;28;20106;-78
2022/05/05 08:42:31;;;;;;;17.55;3.78;;;;;;;20.28;35.22;101216.06;4973019;28;20026;-77
2022/05/05 08:45:00;;;;;;;10.82;3.80;;;;;;;20.27;35.67;101217.09;4975354;28;20030;-78
2022/05/05 08:47:31;;;;;;;5.45;2.97;;;;;;;20.38;35.46;101228.53;4973825;28;20031;-78
2022/05/05 08:49:58;;;;;;;14.57;3.15;;;;;;;20.45;35.21;101223.22;4973908;28;20023;-78
2022/05/05 08:52:25;;;;;;;19.90;4.22;;;;;;;20.43;35.51;101217.06;4973431;28;20019;-77
2022/05/05 08:54:51;;;;;;;10.38;3.40;;;;;;;20.56;35.37;101223.69;4973197;28;20054;-78
2022/05/05 08:57:16;;;;;;;10.02;3.33;;;;;;;20.73;34.85;101220.91;4973311;28;20323;-78
2022/05/05 08:59:42;;;;;;;18.10;3.20;;;;;;;20.88;34.54;101227.34;4973198;28;20105;-78
2022/05/05 09:02:09;;;;;;;6.78;2.55;;;;;;;21.01;33.28;101239.41;4972863;28;20105;-78
2022/05/05 09:04:34;;;;;;;7.60;2.80;;;;;;;21.07;33.27;101219.56;4973065;28;20038;-78
2022/05/05 09:07:00;;;;;;;45.35;19.95;;;;;;;21.15;33.58;101221.44;4988275;28;20468;-77
2022/05/05 09:09:33;;;;;;;16.92;3.35;;;;;;;21.21;33.47;101214.41;4973724;28;20033;-77
2022/05/05 09:12:18;;;;;;;12.88;3.47;;;;;;;21.21;33.30;101226.22;4973655;28;20097;-77
2022/05/05 09:14:53;;;;;;;10.63;3.85;;;;;;;21.26;33.45;101221.03;4973773;28;20497;-79
2022/05/05 09:17:29;;;;;;;7.38;3.78;;;;;;;21.37;34.00;101222.53;4978508;28;20027;-79
2022/05/05 09:19:56;;;;;;;10.63;3.08;;;;;;;21.49;33.71;101224.69;4987862;28;20019;-79
2022/05/05 09:22:24;;;;;;;13.60;3.00;;;;;;;21.55;31.82;101220.34;4973544;28;20027;-78
2022/05/05 09:24:51;;;;;;;7.40;3.13;;;;;;;21.58;31.61;101229.06;4972676;28;20035;-78
2022/05/05 09:27:28;;;;;;;21.30;3.13;;;;;;;21.55;31.85;101229.44;4973339;28;20022;-78
2022/05/05 09:30:03;;;;;;;11.25;3.13;;;;;;;21.56;31.94;101225.63;4973217;28;20023;-79
2022/05/05 09:32:42;;;;;;;8.35;2.75;;;;;;;21.56;32.24;101220.16;4972991;28;20045;-80
2022/05/05 09:35:10;;;;;;;23.60;3.47;;;;;;;21.50;32.17;101230.97;4972709;28;20029;-78
2022/05/05 09:37:41;;;;;;;7.07;3.17;;;;;;;21.54;31.32;101230.44;4975442;28;20489;-78
2022/05/05 09:40:07;;;;;;;6.82;2.17;;;;;;;21.57;31.49;101232.81;4971334;28;20034;-78
2022/05/05 09:42:37;;;;;;;13.68;3.70;;;;;;;21.60;31.11;101231.59;4976233;28;20437;-77
2022/05/05 09:45:21;;;;;;;6.32;3.47;;;;;;;21.42;31.13;101231.91;4976177;28;20027;-77
2022/05/05 09:47:55;;;;;;;25.63;4.00;;;;;;;21.30;31.93;101225.13;4976410;28;20073;-78
2022/05/05 09:50:22;;;;;;;21.13;3.08;;;;;;;21.38;31.66;101232.41;4978125;28;20037;-76
2022/05/05 09:58:23;;;;;;;13.43;3.75;;;;;;;21.63;30.62;101237.56;4976462;28;20033;-78
2022/05/05 10:00:58;;;;;;;9.82;2.75;;;;;;;21.57;31.28;101241.03;4976406;28;20038;-78
2022/05/05 10:06:18;;;;;;;12.43;2.70;;;;;;;21.45;32.01;101241.63;4976113;28;20040;-79
2022/05/05 10:08:45;;;;;;;11.82;3.20;;;;;;;21.40;37.43;101272.28;4975858;28;20026;-77
2022/05/05 10:11:15;;;;;;;17.33;3.78;;;;;;;21.02;43.06;101268.50;4975732;28;20030;-80
2022/05/05 10:13:42;;;;;;;36.92;5.28;;;;;;;20.80;45.03;101257.44;4975822;28;20629;-76
2022/05/05 10:16:09;;;;;;;9.63;3.45;;;;;;;20.92;45.32;101250.56;4975821;28;20041;-78
2022/05/05 10:18:39;;;;;;;24.13;5.70;;;;;;;21.00;46.05;101267.81;4975590;28;20019;-80
2022/05/05 10:21:07;;;;;;;7.07;3.70;;;;;;;20.56;47.36;101272.03;4974575;28;20041;-77
2022/05/05 10:24:12;;;;;;;17.85;3.63;;;;;;;20.41;47.40;101252.75;4975745;28;20560;-78
2022/05/05 10:26:38;;;;;;;20.05;4.75;;;;;;;20.24;48.04;101264.72;4975815;28;20018;-79
2022/05/05 10:29:03;;;;;;;12.00;4.50;;;;;;;20.00;48.28;101264.69;4975535;28;20037;-77
2022/05/05 10:31:33;;;;;;;23.73;4.78;;;;;;;19.84;49.16;101267.44;4975395;28;20018;-77
2022/05/05 10:34:09;;;;;;;30.38;4.78;;;;;;;19.74;50.13;101267.59;4975287;28;20499;-79
2022/05/05 10:36:36;;;;;;;16.67;3.80;;;;;;;19.50;51.57;101282.03;4975624;28;20033;-79
2022/05/05 10:39:18;;;;;;;12.65;4.15;;;;;;;19.41;51.89;101274.88;4975503;28;20025;-80
2022/05/05 10:41:43;;;;;;;12.88;3.70;;;;;;;19.50;52.01;101273.88;4975545;28;20042;-79
2022/05/05 10:44:22;;;;;;;16.45;3.50;;;;;;;19.87;51.30;101272.56;4974019;28;20125;-79
2022/05/05 10:46:52;;;;;;;11.73;3.72;;;;;;;19.93;51.63;101272.75;4974516;28;20038;-79
2022/05/05 10:49:30;;;;;;;15.98;4.00;;;;;;;19.97;51.28;101262.31;4975705;28;20026;-79
2022/05/05 10:52:10;;;;;;;27.95;3.63;;;;;;;19.84;52.02;101259.25;4975714;28;20038;-79
2022/05/05 10:54:36;;;;;;;22.42;3.30;;;;;;;20.16;51.73;101266.56;4988477;28;20050;-78
2022/05/05 10:57:26;;;;;;;19.75;3.92;;;;;;;20.41;50.53;101260.09;4979549;28;20189;-79
2022/05/05 11:00:07;;;;;;;16.92;3.58;;;;;;;20.52;50.58;101262.47;4975107;28;20493;-79
2022/05/05 11:02:34;;;;;;;14.45;3.92;;;;;;;20.70;50.38;101265.88;4989992;28;20054;-78
2022/05/05 11:05:36;;;;;;;15.27;3.72;;;;;;;20.95;48.98;101264.75;4973295;28;20045;-77
2022/05/05 11:08:10;;;;;;;30.85;3.95;;;;;;;20.72;49.74;101280.22;4974574;28;20027;-78
2022/05/05 11:10:39;;;;;;;12.73;3.70;;;;;;;20.66;50.06;101277.31;4974944;28;20038;-80
2022/05/05 11:13:05;;;;;;;17.17;4.28;;;;;;;20.74;49.53;101280.00;4974585;28;20113;-79
2022/05/05 11:23:59;;;;;;;12.27;5.32;;;;;;;20.73;49.09;101283.78;4974744;28;20472;-79
2022/05/05 11:26:25;;;;;;;8.18;3.38;;;;;;;20.67;49.55;101287.22;4974581;28;20136;-79
2022/05/05 11:28:51;;;;;;;20.25;4.60;;;;;;;20.50;49.44;101276.31;4974579;28;20580;-78
2022/05/05 11:31:20;;;;;;;15.65;4.40;;;;;;;20.45;49.74;101286.94;4974249;28;20173;-78
2022/05/05 11:33:53;;;;;;;13.30;3.05;;;;;;;20.39;49.77;101290.34;4974594;28;20065;-78
2022/05/05 11:36:20;;;;;;;18.10;5.25;;;;;;;20.19;50.17;101288.09;4989127;28;20031;-77
2022/05/05 11:38:46;;;;;;;17.80;3.88;;;;;;;20.37;49.67;101297.84;4974140;28;20030;-80
2022/05/05 11:41:15;;;;;;;9.00;4.50;;;;;;;20.26;49.11;101295.47;4973010;28;20423;-79
2022/05/05 11:46:26;;;;;;;10.27;3.80;;;;;;;20.15;48.79;101292.19;4974413;28;20567;-81
2022/05/05 11:49:14;;;;;;;17.20;4.10;;;;;;;20.26;48.41;101302.81;4974572;28;20030;-79
2022/05/05 11:51:39;;;;;;;10.23;3.85;;;;;;;19.83;48.92;101310.25;4974831;28;20043;-80
2022/05/05 11:54:09;;;;;;;9.25;3.80;;;;;;;19.72;49.51;101309.72;4975410;28;20037;-80
2022/05/05 11:56:37;;;;;;;14.88;3.70;;;;;;;19.88;49.10;101301.53;4979620;28;20030;-92
2022/05/05 12:02:00;;;;;;;17.95;3.60;;;;;;;19.73;49.03;101301.34;4976251;28;20096;-88
2022/05/05 12:04:27;;;;;;;12.23;3.80;;;;;;;19.78;49.46;101309.06;4990047;28;20026;-83